createdAt,value
2018-08-11T00:01:33.801Z,1.10
2018-08-11T00:04:01.325Z,1.20
2018-08-11T00:06:28.697Z,1.20
2018-08-11T00:08:56.811Z,1.33
2018-08-11T00:11:24.120Z,1.00
2018-08-11T00:13:51.459Z,1.17
2018-08-11T00:16:18.817Z,1.60
2018-08-11T00:18:46.225Z,1.47
2018-08-11T00:21:13.593Z,1.20
2018-08-11T00:23:40.966Z,1.30
2018-08-11T00:26:08.304Z,1.60
2018-08-11T00:28:35.674Z,1.10
2018-08-11T00:31:03.026Z,1.60
2018-08-11T00:33:30.447Z,1.47
2018-08-11T00:35:58.022Z,1.20
2018-08-11T00:38:25.333Z,1.40
2018-08-11T00:40:52.612Z,1.27
2018-08-11T00:43:19.931Z,1.30
2018-08-11T00:45:47.237Z,1.70
2018-08-11T00:48:14.635Z,1.50
2018-08-11T00:50:41.993Z,1.37
2018-08-11T00:53:09.358Z,1.50
2018-08-11T00:55:36.818Z,1.43
2018-08-11T00:58:04.181Z,1.30
2018-08-11T01:00:31.525Z,1.27
2018-08-11T01:02:59.028Z,1.37
2018-08-11T01:05:26.356Z,1.63
2018-08-11T01:07:53.708Z,1.33
2018-08-11T01:10:21.044Z,1.50
2018-08-11T01:12:48.972Z,1.30
2018-08-11T01:15:17.975Z,1.33
2018-08-11T01:17:46.126Z,1.37
2018-08-11T01:20:13.876Z,1.60
2018-08-11T01:22:42.139Z,1.30
2018-08-11T01:25:09.900Z,1.50
2018-08-11T01:27:37.641Z,1.40
2018-08-11T01:30:06.153Z,1.40
2018-08-11T01:32:33.610Z,1.93
2018-08-11T01:35:00.934Z,1.23
2018-08-11T01:37:28.254Z,1.30
2018-08-11T01:39:55.656Z,1.43
2018-08-11T01:42:22.966Z,1.30
2018-08-11T01:44:50.311Z,1.50
2018-08-11T01:47:17.674Z,1.17
2018-08-11T01:49:45.026Z,1.60
2018-08-11T01:52:12.520Z,1.30
2018-08-11T01:54:39.814Z,1.73
2018-08-11T01:57:07.290Z,1.33
2018-08-11T01:59:34.585Z,0.90
2018-08-11T02:02:01.908Z,1.33
2018-08-11T02:04:29.269Z,1.10
2018-08-11T02:06:56.921Z,1.33
2018-08-11T02:09:24.239Z,1.53
2018-08-11T02:11:51.572Z,1.53
2018-08-11T02:14:18.878Z,1.53
2018-08-11T02:16:46.249Z,1.50
2018-08-11T02:19:13.589Z,1.27
2018-08-11T02:21:40.874Z,1.63
2018-08-11T02:24:08.238Z,1.33
2018-08-11T02:26:35.610Z,1.57
2018-08-11T02:29:02.976Z,1.27
2018-08-11T02:31:30.335Z,1.33
2018-08-11T02:33:57.670Z,1.43
2018-08-11T02:36:24.979Z,1.57
2018-08-11T02:38:52.307Z,1.30
2018-08-11T02:41:19.654Z,1.40
2018-08-11T02:43:47.002Z,1.43
2018-08-11T02:46:14.296Z,1.10
2018-08-11T02:48:41.626Z,1.40
2018-08-11T02:51:09.464Z,1.50
2018-08-11T02:53:36.777Z,1.40
2018-08-11T02:56:04.198Z,1.50
2018-08-11T02:58:31.487Z,1.20
2018-08-11T03:00:58.992Z,1.80
2018-08-11T03:03:26.652Z,1.80
2018-08-11T03:05:54.032Z,1.30
2018-08-11T03:08:21.304Z,1.50
2018-08-11T03:10:48.681Z,1.50
2018-08-11T03:13:16.087Z,1.43
2018-08-11T03:15:43.412Z,1.40
2018-08-11T03:18:11.775Z,1.63
2018-08-11T03:20:39.300Z,1.60
2018-08-11T03:23:06.602Z,1.33
2018-08-11T03:25:33.932Z,1.50
2018-08-11T03:28:01.268Z,1.57
2018-08-11T03:30:28.613Z,1.50
2018-08-11T03:32:55.995Z,1.57
2018-08-11T03:35:23.270Z,1.50
2018-08-11T03:37:50.681Z,1.43
2018-08-11T03:40:17.994Z,1.63
2018-08-11T03:42:45.321Z,1.70
2018-08-11T03:45:13.680Z,1.83
2018-08-11T03:47:40.997Z,1.80
2018-08-11T03:50:08.415Z,2.03
2018-08-11T03:52:36.283Z,2.00
2018-08-11T03:55:03.611Z,1.97
2018-08-11T03:57:30.955Z,1.70
2018-08-11T03:59:58.214Z,2.00
2018-08-11T04:02:25.566Z,2.00
2018-08-11T04:04:52.868Z,2.00
2018-08-11T04:07:20.174Z,1.53
2018-08-11T04:09:47.477Z,1.53
2018-08-11T04:12:14.956Z,2.00
2018-08-11T04:14:48.521Z,2.00
2018-08-11T04:17:16.341Z,2.10
2018-08-11T04:19:43.647Z,1.63
2018-08-11T04:22:10.957Z,1.70
2018-08-11T04:24:38.258Z,1.70
2018-08-11T04:27:05.571Z,1.70
2018-08-11T04:29:32.909Z,1.73
2018-08-11T04:32:00.240Z,2.07
2018-08-11T04:34:27.523Z,1.67
2018-08-11T04:36:54.806Z,1.37
2018-08-11T04:39:22.220Z,1.63
2018-08-11T04:41:49.668Z,1.60
2018-08-11T04:44:17.049Z,1.80
2018-08-11T04:46:44.398Z,1.40
2018-08-11T04:49:11.720Z,1.67
2018-08-11T04:51:39.037Z,1.30
2018-08-11T04:54:06.389Z,1.57
2018-08-11T04:56:33.700Z,1.27
2018-08-11T04:59:01.078Z,1.33
2018-08-11T05:01:28.431Z,1.77
2018-08-11T05:03:55.807Z,1.50
2018-08-11T05:06:23.239Z,1.60
2018-08-11T05:08:50.571Z,2.30
2018-08-11T05:11:17.931Z,1.80
2018-08-11T05:13:45.209Z,1.80
2018-08-11T05:16:12.483Z,1.80
2018-08-11T05:18:39.780Z,1.97
2018-08-11T05:21:07.088Z,1.53
2018-08-11T05:23:34.397Z,1.97
2018-08-11T05:26:01.790Z,2.00
2018-08-11T05:28:29.456Z,1.60
2018-08-11T05:30:56.789Z,1.53
2018-08-11T05:33:24.110Z,1.73
2018-08-11T05:35:51.466Z,1.50
2018-08-11T05:38:19.301Z,1.83
2018-08-11T05:40:46.674Z,1.80
2018-08-11T05:43:14.006Z,1.73
2018-08-11T05:45:41.345Z,1.63
2018-08-11T05:48:09.637Z,1.80
2018-08-11T05:50:36.984Z,1.60
2018-08-11T05:53:04.281Z,1.40
2018-08-11T05:55:31.639Z,1.83
2018-08-11T05:57:59.160Z,1.77
2018-08-11T06:00:26.565Z,1.60
2018-08-11T06:02:53.925Z,1.40
2018-08-11T06:05:21.405Z,1.70
2018-08-11T06:07:48.785Z,1.80
2018-08-11T06:10:16.149Z,1.53
2018-08-11T06:12:43.520Z,1.50
2018-08-11T06:15:10.827Z,1.50
2018-08-11T06:17:38.268Z,1.67
2018-08-11T06:20:06.539Z,1.60
2018-08-11T06:22:33.891Z,1.60
2018-08-11T06:25:01.452Z,1.33
2018-08-11T06:27:28.885Z,1.63
2018-08-11T06:29:56.300Z,2.00
2018-08-11T06:32:23.633Z,1.57
2018-08-11T06:34:51.009Z,1.20
2018-08-11T06:37:18.406Z,1.20
2018-08-11T06:39:45.743Z,1.27
2018-08-11T06:42:13.066Z,1.80
2018-08-11T06:44:40.458Z,1.37
2018-08-11T06:47:07.872Z,1.63
2018-08-11T06:49:35.101Z,1.67
2018-08-11T06:52:02.519Z,1.60
2018-08-11T06:54:29.903Z,1.57
2018-08-11T06:56:57.331Z,1.57
2018-08-11T06:59:24.654Z,1.30
2018-08-11T07:01:52.082Z,1.57
2018-08-11T07:04:19.529Z,1.30
2018-08-11T07:06:46.884Z,1.90
2018-08-11T07:09:14.240Z,1.40
2018-08-11T07:11:41.578Z,1.60
2018-08-11T07:14:08.940Z,1.40
2018-08-11T07:16:36.638Z,1.40
2018-08-11T07:19:04.103Z,1.40
2018-08-11T07:21:31.463Z,1.57
2018-08-11T07:23:58.819Z,1.53
2018-08-11T07:26:26.158Z,1.07
2018-08-11T07:28:53.493Z,1.50
2018-08-11T07:31:20.815Z,1.10
2018-08-11T07:33:48.221Z,1.40
2018-08-11T07:36:15.576Z,0.87
2018-08-11T07:38:42.909Z,1.20
2018-08-11T07:41:10.293Z,1.70
2018-08-11T07:43:37.612Z,1.13
2018-08-11T07:46:05.005Z,1.30
2018-08-11T07:48:32.561Z,1.17
2018-08-11T07:50:59.858Z,1.80
2018-08-11T07:53:27.401Z,1.20
2018-08-11T07:55:56.210Z,1.00
2018-08-11T07:58:23.853Z,1.33
2018-08-11T08:00:51.232Z,1.20
2018-08-11T08:03:18.543Z,1.60
2018-08-11T08:05:46.429Z,1.90
2018-08-11T08:08:13.801Z,1.23
2018-08-11T08:10:41.344Z,1.00
2018-08-11T08:13:08.689Z,1.40
2018-08-11T08:15:36.598Z,1.43
2018-08-11T08:18:03.972Z,1.43
2018-08-11T08:20:31.284Z,1.17
2018-08-11T08:22:58.629Z,1.33
2018-08-11T08:25:25.967Z,1.20
2018-08-11T08:27:53.674Z,1.20
2018-08-11T08:30:21.109Z,0.90
2018-08-11T08:32:48.457Z,1.37
2018-08-11T08:35:15.811Z,1.50
2018-08-11T08:37:43.249Z,1.20
2018-08-11T08:40:10.635Z,1.53
2018-08-11T08:42:38.678Z,0.97
2018-08-11T08:45:09.310Z,1.17
2018-08-11T08:47:37.760Z,1.00
2018-08-11T08:50:05.294Z,1.33
2018-08-11T08:52:32.896Z,1.37
2018-08-11T08:55:00.300Z,1.40
2018-08-11T08:57:27.725Z,1.40
2018-08-11T08:59:55.242Z,1.20
2018-08-11T09:02:22.870Z,1.23
2018-08-11T09:04:50.353Z,1.13
2018-08-11T09:07:17.668Z,1.30
2018-08-11T09:09:45.094Z,1.30
2018-08-11T09:12:12.585Z,1.20
2018-08-11T09:14:39.982Z,1.33
2018-08-11T09:17:08.116Z,1.50
2018-08-11T09:19:35.457Z,1.50
2018-08-11T09:22:02.809Z,1.33
2018-08-11T09:24:30.789Z,1.33
2018-08-11T09:26:58.249Z,1.90
2018-08-11T09:29:25.575Z,1.20
2018-08-11T09:31:53.646Z,1.03
2018-08-11T09:34:20.995Z,1.00
2018-08-11T09:36:53.292Z,1.40
2018-08-11T09:39:20.692Z,1.47
2018-08-11T09:41:48.055Z,1.10
2018-08-11T09:44:15.444Z,1.20
2018-08-11T09:46:43.186Z,1.30
2018-08-11T09:49:10.587Z,1.20
2018-08-11T09:51:37.903Z,1.07
2018-08-11T09:54:05.250Z,1.20
2018-08-11T09:56:32.621Z,1.23
2018-08-11T09:59:00.072Z,1.40
2018-08-11T10:01:33.154Z,1.17
2018-08-11T10:04:00.726Z,1.23
2018-08-11T10:06:28.042Z,0.90
2018-08-11T10:08:55.372Z,1.07
2018-08-11T10:11:22.867Z,1.17
2018-08-11T10:13:50.292Z,1.20
2018-08-11T10:16:18.799Z,1.33
2018-08-11T10:18:46.134Z,0.80
2018-08-11T10:21:13.466Z,1.70
2018-08-11T10:23:40.941Z,1.10
2018-08-11T10:26:08.317Z,1.00
2018-08-11T10:28:35.685Z,1.60
2018-08-11T10:31:03.415Z,1.40
2018-08-11T10:33:30.767Z,1.20
2018-08-11T10:35:58.127Z,0.90
2018-08-11T10:38:26.085Z,0.97
2018-08-11T10:40:53.659Z,1.20
2018-08-11T10:43:21.827Z,1.10
2018-08-11T10:45:49.161Z,1.27
2018-08-11T10:48:16.639Z,1.07
2018-08-11T10:50:43.988Z,1.33
2018-08-11T10:53:12.041Z,1.20
2018-08-11T10:55:39.412Z,1.17
2018-08-11T10:58:06.745Z,1.60
2018-08-11T11:00:34.058Z,1.70
2018-08-11T11:03:02.918Z,1.57
2018-08-11T11:05:30.481Z,1.53
2018-08-11T11:07:57.827Z,1.47
2018-08-11T11:10:25.182Z,1.30
2018-08-11T11:12:52.501Z,1.10
2018-08-11T11:15:19.801Z,3.00
2018-08-11T11:17:47.128Z,1.40
2018-08-11T11:20:14.420Z,0.97
2018-08-11T11:22:42.251Z,1.27
2018-08-11T11:25:09.542Z,1.27
2018-08-11T11:27:36.955Z,0.97
2018-08-11T11:30:05.006Z,1.10
2018-08-11T11:32:32.399Z,1.20
2018-08-11T11:35:00.149Z,1.00
2018-08-11T11:37:27.567Z,1.00
2018-08-11T11:40:13.586Z,0.97
2018-08-11T11:42:41.672Z,1.40
2018-08-11T11:45:09.078Z,1.10
2018-08-11T11:47:36.504Z,1.60
2018-08-11T11:50:04.106Z,1.70
2018-08-11T11:52:31.645Z,1.27
2018-08-11T11:54:59.014Z,1.47
2018-08-11T11:57:26.504Z,1.30
2018-08-11T11:59:54.014Z,1.40
2018-08-11T12:02:21.497Z,1.17
2018-08-11T12:04:48.778Z,1.23
2018-08-11T12:07:16.092Z,1.40
2018-08-11T12:09:43.403Z,1.30
2018-08-11T12:12:10.732Z,1.27
2018-08-11T12:14:38.045Z,1.60
2018-08-11T12:17:05.451Z,1.20
2018-08-11T12:19:32.849Z,1.37
2018-08-11T12:22:00.168Z,1.10
2018-08-11T12:24:27.471Z,1.40
2018-08-11T12:26:54.771Z,1.50
2018-08-11T12:29:22.154Z,1.30
2018-08-11T12:31:49.615Z,1.30
2018-08-11T12:34:16.914Z,1.37
2018-08-11T12:36:44.205Z,1.20
2018-08-11T12:39:11.805Z,1.43
2018-08-11T12:41:39.777Z,1.40
2018-08-11T12:44:07.179Z,1.27
2018-08-11T12:46:34.574Z,1.40
2018-08-11T12:49:01.925Z,1.53
2018-08-11T12:51:29.389Z,1.27
2018-08-11T12:53:56.764Z,1.53
2018-08-11T12:56:24.533Z,1.50
2018-08-11T12:58:51.862Z,1.30
2018-08-11T13:01:19.165Z,1.30
2018-08-11T13:03:46.466Z,1.20
2018-08-11T13:06:13.823Z,1.03
2018-08-11T13:08:41.117Z,1.23
2018-08-11T13:11:08.434Z,1.10
2018-08-11T13:13:35.955Z,1.17
2018-08-11T13:16:03.365Z,1.57
2018-08-11T13:18:30.826Z,1.50
2018-08-11T13:20:58.165Z,1.20
2018-08-11T13:23:25.485Z,1.23
2018-08-11T13:25:52.771Z,1.17
2018-08-11T13:28:20.153Z,1.33
2018-08-11T13:30:47.434Z,1.23
2018-08-11T13:33:14.763Z,1.40
2018-08-11T13:35:42.200Z,1.20
2018-08-11T13:38:09.956Z,1.23
2018-08-11T13:40:37.269Z,1.07
2018-08-11T13:43:04.708Z,1.40
2018-08-11T13:45:32.026Z,1.20
2018-08-11T13:47:59.375Z,1.10
2018-08-11T13:50:26.734Z,1.23
2018-08-11T13:52:54.172Z,1.60
2018-08-11T13:55:21.753Z,1.17
2018-08-11T13:57:49.535Z,1.20
2018-08-11T14:00:17.034Z,1.37
2018-08-11T14:02:45.204Z,1.30
2018-08-11T14:05:12.549Z,1.30
2018-08-11T14:07:39.918Z,1.37
2018-08-11T14:10:08.256Z,1.27
2018-08-11T14:12:35.620Z,1.40
2018-08-11T14:15:03.010Z,1.00
2018-08-11T14:17:30.310Z,1.13
2018-08-11T14:19:57.684Z,1.20
2018-08-11T14:22:24.999Z,1.10
2018-08-11T14:24:52.350Z,1.23
2018-08-11T14:27:19.676Z,1.33
2018-08-11T14:29:47.010Z,1.37
2018-08-11T14:32:14.359Z,1.20
2018-08-11T14:34:41.757Z,1.30
2018-08-11T14:37:09.109Z,1.23
2018-08-11T14:39:36.450Z,1.07
2018-08-11T14:42:03.850Z,0.70
2018-08-11T14:44:37.989Z,1.40
2018-08-11T14:47:05.419Z,0.90
2018-08-11T14:49:32.908Z,1.20
2018-08-11T14:52:00.186Z,1.17
2018-08-11T14:54:27.485Z,1.30
2018-08-11T14:56:55.086Z,1.00
2018-08-11T14:59:22.442Z,1.03
2018-08-11T15:01:49.757Z,1.40
2018-08-11T15:04:17.384Z,1.10
2018-08-11T15:06:44.755Z,1.00
2018-08-11T15:09:12.137Z,1.27
2018-08-11T15:11:40.029Z,1.37
2018-08-11T15:14:07.647Z,1.07
2018-08-11T15:16:35.054Z,1.00
2018-08-11T15:19:02.511Z,1.33
2018-08-11T15:21:29.972Z,1.10
2018-08-11T15:23:57.353Z,1.20
2018-08-11T15:26:24.701Z,1.10
2018-08-11T15:28:52.092Z,1.53
2018-08-11T15:31:20.299Z,1.50
2018-08-11T15:33:47.698Z,1.57
2018-08-11T15:36:16.456Z,1.30
2018-08-11T15:38:44.308Z,1.57
2018-08-11T15:41:11.586Z,1.40
2018-08-11T15:43:39.042Z,1.50
2018-08-11T15:46:06.651Z,1.17
2018-08-11T15:48:34.008Z,1.20
2018-08-11T15:51:01.627Z,1.50
2018-08-11T15:53:28.964Z,1.70
2018-08-11T15:55:56.605Z,1.30
2018-08-11T15:58:24.167Z,3.20
2018-08-11T16:00:51.509Z,1.43
2018-08-11T16:03:18.849Z,1.50
2018-08-11T16:05:46.237Z,1.40
2018-08-11T16:08:13.572Z,1.43
2018-08-11T16:10:40.926Z,1.00
2018-08-11T16:13:09.205Z,1.00
2018-08-11T16:15:36.643Z,0.80
2018-08-11T16:18:04.015Z,1.37
2018-08-11T16:20:31.650Z,0.80
2018-08-11T16:22:58.973Z,1.00
2018-08-11T16:25:26.421Z,1.13
2018-08-11T16:27:53.777Z,1.07
2018-08-11T16:30:21.084Z,1.17
2018-08-11T16:32:48.813Z,1.40
2018-08-11T16:35:16.168Z,1.10
2018-08-11T16:37:43.551Z,1.17
2018-08-11T16:40:10.845Z,1.40
2018-08-11T16:42:38.574Z,1.03
2018-08-11T16:45:06.074Z,1.40
2018-08-11T16:47:33.359Z,1.10
2018-08-11T16:50:00.713Z,0.87
2018-08-11T16:52:27.985Z,1.13
2018-08-11T16:54:55.418Z,1.13
2018-08-11T16:57:22.754Z,0.93
2018-08-11T16:59:50.546Z,0.90
2018-08-11T17:02:17.859Z,1.10
2018-08-11T17:04:45.234Z,1.10
2018-08-11T17:07:12.653Z,1.10
2018-08-11T17:09:40.058Z,1.13
2018-08-11T17:12:07.539Z,1.20
2018-08-11T17:14:35.164Z,1.33
2018-08-11T17:17:02.465Z,1.00
2018-08-11T17:19:29.825Z,1.13
2018-08-11T17:21:57.176Z,1.43
2018-08-11T17:24:24.488Z,1.20
2018-08-11T17:26:51.865Z,1.00
2018-08-11T17:29:19.208Z,1.20
2018-08-11T17:31:46.667Z,1.43
2018-08-11T17:34:14.060Z,1.13
2018-08-11T17:36:41.594Z,1.37
2018-08-11T17:39:10.383Z,0.90
2018-08-11T17:41:37.700Z,1.60
2018-08-11T17:44:05.354Z,1.00
2018-08-11T17:46:32.648Z,1.07
2018-08-11T17:49:00.042Z,0.93
2018-08-11T17:51:27.317Z,1.13
2018-08-11T17:53:54.665Z,1.23
2018-08-11T17:56:22.154Z,1.30
2018-08-11T17:58:53.280Z,1.17
2018-08-11T18:01:20.770Z,1.03
2018-08-11T18:03:48.354Z,1.23
2018-08-11T18:06:15.741Z,1.23
2018-08-11T18:08:43.145Z,0.83
2018-08-11T18:11:10.639Z,1.60
2018-08-11T18:13:38.023Z,1.00
2018-08-11T18:16:05.457Z,1.30
2018-08-11T18:18:33.002Z,1.60
2018-08-11T18:21:00.494Z,1.30
2018-08-11T18:23:27.832Z,1.57
2018-08-11T18:25:55.184Z,1.63
2018-08-11T18:28:22.529Z,1.43
2018-08-11T18:30:49.891Z,1.30
2018-08-11T18:33:17.233Z,1.40
2018-08-11T18:35:44.576Z,1.03
2018-08-11T18:38:12.057Z,1.50
2018-08-11T18:40:39.396Z,1.27
2018-08-11T18:43:06.793Z,1.20
2018-08-11T18:45:34.384Z,1.50
2018-08-11T18:48:02.119Z,1.70
2018-08-11T18:50:29.555Z,1.40
2018-08-11T18:52:56.916Z,1.60
2018-08-11T18:55:24.634Z,2.40
2018-08-11T18:57:51.964Z,1.63
2018-08-11T19:00:19.636Z,1.67
2018-08-11T19:02:47.093Z,1.50
2018-08-11T19:05:14.533Z,1.63
2018-08-11T19:07:41.855Z,1.70
2018-08-11T19:10:10.034Z,1.80
2018-08-11T19:12:38.268Z,2.23
2018-08-11T19:15:14.835Z,1.57
2018-08-11T19:17:42.261Z,1.60
2018-08-11T19:20:13.922Z,1.50
2018-08-11T19:22:41.406Z,2.10
2018-08-11T19:25:09.963Z,1.60
2018-08-11T19:27:37.338Z,1.50
2018-08-11T19:30:05.488Z,1.73
2018-08-11T19:32:32.874Z,1.47
2018-08-11T19:35:00.621Z,2.03
2018-08-11T19:37:28.187Z,1.83
2018-08-11T19:39:55.619Z,1.83
2018-08-11T19:42:22.976Z,2.40
2018-08-11T19:44:50.348Z,2.83
2018-08-11T19:47:17.776Z,2.53
2018-08-11T19:49:45.159Z,3.10
2018-08-11T19:52:12.551Z,2.00
2018-08-11T19:54:39.938Z,2.20
2018-08-11T19:57:07.285Z,2.43
2018-08-11T19:59:34.709Z,1.93
2018-08-11T20:02:02.067Z,1.83
2018-08-11T20:04:29.418Z,2.10
2018-08-11T20:06:56.760Z,2.07
2018-08-11T20:09:24.172Z,2.43
2018-08-11T20:11:51.523Z,2.47
2018-08-11T20:14:18.921Z,2.53
2018-08-11T20:16:46.398Z,2.93
2018-08-11T20:19:13.866Z,2.90
2018-08-11T20:21:41.057Z,2.73
2018-08-11T20:24:08.380Z,2.60
2018-08-11T20:26:35.801Z,3.07
2018-08-11T20:29:03.387Z,2.97
2018-08-11T20:31:30.908Z,2.63
2018-08-11T20:33:58.434Z,2.93
2018-08-11T20:36:26.131Z,2.30
2018-08-11T20:38:53.508Z,3.50
2018-08-11T20:41:21.006Z,3.20
2018-08-11T20:43:48.372Z,2.13
2018-08-11T20:46:15.752Z,3.07
2018-08-11T20:48:43.117Z,2.40
2018-08-11T20:51:10.872Z,2.40
2018-08-11T20:53:38.173Z,2.70
2018-08-11T20:56:05.515Z,2.90
2018-08-11T20:58:32.872Z,2.80
2018-08-11T21:01:00.552Z,3.03
2018-08-11T21:03:27.920Z,3.40
2018-08-11T21:05:55.280Z,3.10
2018-08-11T21:08:22.640Z,2.93
2018-08-11T21:10:49.979Z,3.27
2018-08-11T21:13:17.317Z,3.43
2018-08-11T21:15:44.647Z,3.60
2018-08-11T21:18:12.067Z,3.33
2018-08-11T21:20:39.440Z,3.60
2018-08-11T21:23:06.749Z,3.60
2018-08-11T21:25:34.341Z,4.43
2018-08-11T21:28:01.785Z,4.33
2018-08-11T21:30:29.156Z,4.97
2018-08-11T21:32:56.536Z,3.83
2018-08-11T21:35:23.889Z,3.83
2018-08-11T21:37:51.277Z,4.10
2018-08-11T21:40:18.608Z,3.83
2018-08-11T21:42:45.963Z,3.87
2018-08-11T21:45:13.330Z,3.97
2018-08-11T21:47:41.695Z,4.67
2018-08-11T21:50:09.555Z,3.60
2018-08-11T21:52:37.860Z,3.63
2018-08-11T21:55:05.371Z,3.90
2018-08-11T21:57:32.745Z,4.40
2018-08-11T22:00:00.127Z,4.00
2018-08-11T22:02:27.523Z,3.67
2018-08-11T22:04:54.864Z,3.27
2018-08-11T22:07:22.203Z,3.40
2018-08-11T22:09:49.581Z,2.97
2018-08-11T22:12:16.989Z,3.13
2018-08-11T22:14:44.324Z,3.17
2018-08-11T22:17:11.659Z,3.53
2018-08-11T22:19:38.971Z,3.83
2018-08-11T22:22:06.327Z,3.00
2018-08-11T22:24:33.979Z,3.57
2018-08-11T22:27:01.257Z,2.97
2018-08-11T22:29:28.557Z,3.30
2018-08-11T22:31:56.128Z,2.93
2018-08-11T22:34:23.428Z,3.20
2018-08-11T22:36:50.744Z,2.57
2018-08-11T22:39:18.058Z,2.93
2018-08-11T22:41:45.348Z,3.20
2018-08-11T22:44:12.684Z,3.50
2018-08-11T22:46:39.988Z,3.30
2018-08-11T22:49:07.302Z,3.30
2018-08-11T22:51:34.609Z,3.40
2018-08-11T22:54:01.904Z,3.20
2018-08-11T22:56:29.260Z,3.20
2018-08-11T22:58:56.537Z,3.00
2018-08-11T23:01:23.827Z,2.90
2018-08-11T23:03:51.161Z,2.80
2018-08-11T23:06:18.417Z,3.27
2018-08-11T23:08:45.728Z,3.17
2018-08-11T23:11:13.105Z,3.50
2018-08-11T23:13:40.380Z,2.77
2018-08-11T23:16:07.813Z,3.50
2018-08-11T23:18:35.134Z,3.20
2018-08-11T23:21:02.433Z,3.13
2018-08-11T23:23:29.741Z,3.10
2018-08-11T23:25:57.123Z,3.63
2018-08-11T23:28:24.793Z,3.30
2018-08-11T23:30:52.175Z,3.17
2018-08-11T23:33:19.465Z,3.63
2018-08-11T23:35:46.824Z,3.53
2018-08-11T23:38:14.124Z,3.33
2018-08-11T23:40:41.423Z,3.63
2018-08-11T23:43:08.707Z,3.70
2018-08-11T23:45:35.990Z,3.43
2018-08-11T23:48:03.328Z,3.37
2018-08-11T23:50:30.843Z,4.13
2018-08-11T23:52:58.204Z,3.47
2018-08-11T23:55:25.632Z,4.13
2018-08-11T23:57:52.957Z,3.80
